Lake Wilson, Minnesota
Current Conditions -  °F | °C
As of 6:36 AM on Sunday 21 Dec 2014 (Local Time) from KDVP Reporting Station
Haze Haze  
Wind Chill: 31°   Ceiling: 200
Heat Index: 31°   Visibility: 1mi
Dew Point: 31°   Wind: 3mph
Humidity: 100%   Direction: 180°S
Pressure: 29.82"   Gusts: NA
Location:  44°N, 95.95°W
Report Text: KDVP 211236Z AUTO 18003KT 1SM BR OVC002 00/00 A2982 RMK AO2 T10051005
Loading
Personal Weather Stations






























Interactive Weather Map New forecast layout! Learn more

10-Day Weather Forecast

Advertisements
Track Severe Weather on mobile